createdAt,value
2019-02-22T00:04:11.641Z,10.40
2019-02-22T00:06:33.867Z,10.40
2019-02-22T00:08:54.408Z,10.40
2019-02-22T00:10:58.826Z,10.40
2019-02-22T00:13:03.193Z,10.40
2019-02-22T00:15:08.004Z,10.40
2019-02-22T00:17:12.323Z,10.40
2019-02-22T00:19:16.594Z,10.40
2019-02-22T00:21:20.859Z,10.40
2019-02-22T00:23:25.199Z,10.30
2019-02-22T00:25:29.592Z,10.30
2019-02-22T00:27:36.081Z,10.40
2019-02-22T00:43:36.956Z,10.30
2019-02-22T00:45:41.173Z,10.40
2019-02-22T00:47:45.328Z,10.40
2019-02-22T00:49:49.754Z,10.40
2019-02-22T00:51:54.396Z,10.40
2019-02-22T00:53:58.499Z,10.40
2019-02-22T00:56:02.690Z,10.40
2019-02-22T00:58:06.803Z,10.40
2019-02-22T01:00:10.901Z,10.50
2019-02-22T01:02:15.145Z,10.50
2019-02-22T01:04:19.579Z,10.50
2019-02-22T01:06:27.521Z,10.50
2019-02-22T01:08:32.303Z,10.40
2019-02-22T01:10:42.399Z,10.40
2019-02-22T01:12:46.568Z,10.40
2019-02-22T01:14:50.781Z,10.40
2019-02-22T01:16:57.218Z,10.40
2019-02-22T01:19:00.662Z,10.50
2019-02-22T01:21:04.725Z,10.40
2019-02-22T01:23:08.801Z,10.40
2019-02-22T01:25:12.845Z,10.50
2019-02-22T01:27:21.994Z,10.40
2019-02-22T01:29:23.316Z,10.40
2019-02-22T01:31:27.339Z,10.30
2019-02-22T01:33:31.538Z,10.30
2019-02-22T01:35:35.670Z,10.30
2019-02-22T01:37:39.641Z,10.30
2019-02-22T01:39:43.896Z,10.30
2019-02-22T01:41:48.138Z,10.30
2019-02-22T01:43:52.189Z,10.30
2019-02-22T01:45:56.392Z,10.30
2019-02-22T01:48:00.423Z,10.30
2019-02-22T01:50:04.726Z,10.30
2019-02-22T01:52:09.210Z,10.40
2019-02-22T01:54:14.034Z,10.40
2019-02-22T01:56:18.518Z,10.40
2019-02-22T01:58:23.106Z,10.40
2019-02-22T02:00:27.400Z,10.50
2019-02-22T02:02:31.699Z,10.50
2019-02-22T02:04:35.839Z,10.50
2019-02-22T02:06:39.953Z,10.50
2019-02-22T02:08:43.946Z,10.50
2019-02-22T02:10:54.101Z,10.50
2019-02-22T02:12:54.208Z,10.50
2019-02-22T02:14:58.100Z,10.50
2019-02-22T02:17:02.250Z,10.60
2019-02-22T02:19:06.818Z,10.60
2019-02-22T02:21:14.300Z,10.60
2019-02-22T02:23:25.645Z,10.60
2019-02-22T02:25:37.641Z,10.60
2019-02-22T02:27:52.275Z,10.50
2019-02-22T02:29:53.618Z,10.50
2019-02-22T02:31:58.575Z,10.50
2019-02-22T02:34:03.535Z,10.50
2019-02-22T02:36:17.803Z,10.50
2019-02-22T02:38:22.054Z,10.50
2019-02-22T02:40:32.610Z,10.40
2019-02-22T02:42:36.810Z,10.40
2019-02-22T02:44:42.450Z,10.50
2019-02-22T02:46:52.628Z,10.50
2019-02-22T02:49:05.033Z,10.50
2019-02-22T02:51:09.190Z,10.40
2019-02-22T02:53:14.873Z,10.50
2019-02-22T02:55:33.887Z,10.50
2019-02-22T02:57:38.365Z,10.50
2019-02-22T02:59:47.432Z,10.50
2019-02-22T03:01:54.796Z,10.50
2019-02-22T03:03:58.835Z,10.50
2019-02-22T03:06:19.131Z,10.50
2019-02-22T03:08:24.930Z,10.50
2019-02-22T03:10:31.476Z,10.50
2019-02-22T03:12:34.706Z,10.40
2019-02-22T03:14:38.717Z,10.40
2019-02-22T03:16:42.781Z,10.40
2019-02-22T03:18:46.941Z,10.40
2019-02-22T03:20:57.179Z,10.40
2019-02-22T03:23:04.216Z,10.50
2019-02-22T03:25:16.189Z,10.40
2019-02-22T03:27:22.785Z,10.40
2019-02-22T03:29:38.271Z,10.40
2019-02-22T03:31:45.637Z,10.40
2019-02-22T03:33:54.926Z,10.40
2019-02-22T03:36:01.696Z,10.40
2019-02-22T03:38:06.087Z,10.40
2019-02-22T03:40:15.344Z,10.30
2019-02-22T03:42:16.742Z,10.30
2019-02-22T03:44:33.234Z,10.30
2019-02-22T03:46:35.300Z,10.30
2019-02-22T03:48:39.455Z,10.30
2019-02-22T03:50:43.916Z,10.20
2019-02-22T03:52:51.592Z,10.20
2019-02-22T03:54:55.734Z,10.20
2019-02-22T03:57:01.245Z,10.20
2019-02-22T03:59:05.527Z,10.20
2019-02-22T04:01:09.658Z,10.20
2019-02-22T04:03:19.860Z,10.20
2019-02-22T04:05:24.775Z,10.20
2019-02-22T04:07:28.908Z,10.10
2019-02-22T04:09:33.513Z,10.20
2019-02-22T04:11:45.581Z,10.10
2019-02-22T04:13:50.193Z,10.20
2019-02-22T04:15:57.532Z,10.10
2019-02-22T04:18:01.603Z,10.10
2019-02-22T04:20:13.736Z,10.10
2019-02-22T04:22:17.848Z,10.00
2019-02-22T04:24:22.200Z,10.10
2019-02-22T04:26:26.261Z,10.10
2019-02-22T04:28:30.416Z,10.10
2019-02-22T04:30:37.988Z,10.10
2019-02-22T04:32:42.439Z,10.20
2019-02-22T04:34:46.529Z,10.20
2019-02-22T04:36:51.184Z,10.20
2019-02-22T04:38:57.342Z,10.20
2019-02-22T04:41:01.379Z,10.20
2019-02-22T04:43:05.430Z,10.20
2019-02-22T04:45:09.620Z,10.20
2019-02-22T04:47:13.758Z,10.20
2019-02-22T04:49:17.778Z,10.20
2019-02-22T04:51:22.243Z,10.20
2019-02-22T04:53:29.208Z,10.20
2019-02-22T04:55:32.500Z,10.20
2019-02-22T04:57:36.480Z,10.20
2019-02-22T04:59:40.655Z,10.20
2019-02-22T05:01:44.734Z,10.20
2019-02-22T05:03:48.656Z,10.20
2019-02-22T05:05:52.631Z,10.20
2019-02-22T05:07:56.601Z,10.20
2019-02-22T05:10:00.601Z,10.20
2019-02-22T05:12:10.789Z,10.10
2019-02-22T05:14:10.531Z,10.20
2019-02-22T05:16:14.517Z,10.20
2019-02-22T05:18:19.369Z,10.20
2019-02-22T05:20:23.328Z,10.10
2019-02-22T05:22:27.288Z,10.10
2019-02-22T05:24:31.517Z,10.20
2019-02-22T05:26:35.645Z,10.20
2019-02-22T07:08:11.084Z,10.40
2019-02-22T07:14:19.309Z,10.40
2019-02-22T07:23:39.202Z,10.40
2019-02-22T07:26:24.680Z,10.40
2019-02-22T07:29:50.985Z,10.40
2019-02-22T07:35:50.079Z,10.50
2019-02-22T07:42:26.599Z,10.60
2019-02-22T07:59:34.480Z,10.90
2019-02-22T08:01:52.445Z,10.90
2019-02-22T08:03:59.796Z,10.90
2019-02-22T08:09:37.085Z,11.00
2019-02-22T08:11:43.213Z,10.90
2019-02-22T08:14:16.989Z,10.90
2019-02-22T08:16:49.354Z,10.90
2019-02-22T08:19:01.588Z,10.90
2019-02-22T08:21:05.803Z,11.00
2019-02-22T08:23:09.877Z,11.10
2019-02-22T08:25:17.663Z,11.20
2019-02-22T08:27:27.760Z,11.30
2019-02-22T08:29:32.219Z,11.30
2019-02-22T08:31:42.647Z,11.40
2019-02-22T08:33:57.185Z,11.40
2019-02-22T08:36:07.964Z,11.40
2019-02-22T08:38:14.206Z,11.50
2019-02-22T08:40:23.833Z,11.60
2019-02-22T08:44:47.479Z,11.90
2019-02-22T08:47:02.709Z,12.00
2019-02-22T08:49:09.280Z,12.10
2019-02-22T08:51:28.566Z,12.20
2019-02-22T08:53:40.459Z,12.30
2019-02-22T08:55:52.514Z,12.40
2019-02-22T08:57:59.971Z,12.40
2019-02-22T09:00:15.388Z,12.50
2019-02-22T09:02:23.219Z,12.50
2019-02-22T09:04:36.432Z,12.60
2019-02-22T09:06:47.256Z,12.60
2019-02-22T09:09:03.338Z,12.70
2019-02-22T09:11:24.255Z,12.70
2019-02-22T09:13:48.431Z,12.80
2019-02-22T09:15:57.208Z,12.80
2019-02-22T09:18:13.388Z,12.80
2019-02-22T09:20:24.356Z,12.80
2019-02-22T09:22:32.849Z,12.80
2019-02-22T09:24:42.829Z,12.60
2019-02-22T09:26:59.096Z,12.60
2019-02-22T09:29:09.465Z,12.40
2019-02-22T09:31:28.429Z,12.40
2019-02-22T09:33:45.240Z,12.30
2019-02-22T09:36:04.361Z,12.40
2019-02-22T09:38:21.104Z,12.50
2019-02-22T09:40:30.721Z,12.40
2019-02-22T09:42:41.395Z,12.30
2019-02-22T09:44:51.670Z,12.20
2019-02-22T09:49:19.515Z,12.40
2019-02-22T09:51:45.738Z,12.40
2019-02-22T09:54:10.764Z,12.50
2019-02-22T09:56:20.372Z,12.40
2019-02-22T09:58:32.779Z,12.30
2019-02-22T10:00:51.891Z,12.20
2019-02-22T10:03:10.285Z,12.20
2019-02-22T10:05:23.445Z,12.20
2019-02-22T10:07:47.274Z,12.40
2019-02-22T10:09:56.007Z,12.60
2019-02-22T10:12:06.473Z,12.70
2019-02-22T10:14:21.955Z,12.60
2019-02-22T10:16:36.141Z,12.70
2019-02-22T10:18:46.352Z,12.80
2019-02-22T10:21:04.410Z,12.90
2019-02-22T10:23:18.365Z,13.00
2019-02-22T10:25:34.580Z,13.20
2019-02-22T10:27:54.244Z,13.40
2019-02-22T10:29:59.684Z,13.60
2019-02-22T10:32:17.738Z,13.50
2019-02-22T10:34:37.467Z,13.50
2019-02-22T10:36:54.968Z,13.60
2019-02-22T10:39:08.461Z,13.80
2019-02-22T10:41:31.101Z,14.00
2019-02-22T10:44:17.465Z,14.30
2019-02-22T10:46:22.888Z,14.80
2019-02-22T10:48:40.300Z,14.80
2019-02-22T10:50:59.318Z,14.80
2019-02-22T10:53:26.762Z,14.80
2019-02-22T10:55:42.160Z,14.80
2019-02-22T10:57:55.254Z,14.70
2019-02-22T11:00:13.458Z,14.60
2019-02-22T11:02:31.313Z,14.50
2019-02-22T11:04:41.560Z,14.50
2019-02-22T11:06:54.591Z,14.60
2019-02-22T11:08:56.683Z,14.60
2019-02-22T11:11:08.777Z,14.60
2019-02-22T11:13:15.308Z,14.50
2019-02-22T11:15:25.704Z,14.30
2019-02-22T11:17:37.122Z,14.40
2019-02-22T11:19:44.265Z,14.50
2019-02-22T11:21:59.203Z,14.70
2019-02-22T11:24:06.458Z,14.90
2019-02-22T11:26:16.801Z,15.10
2019-02-22T11:28:24.383Z,15.20
2019-02-22T11:30:33.806Z,15.20
2019-02-22T11:32:49.327Z,15.10
2019-02-22T11:34:57.044Z,14.90
2019-02-22T11:37:03.771Z,14.90
2019-02-22T11:39:22.979Z,14.90
2019-02-22T11:41:28.881Z,14.90
2019-02-22T11:43:39.011Z,14.90
2019-02-22T11:45:49.896Z,14.90
2019-02-22T11:47:52.624Z,15.00
2019-02-22T11:50:07.225Z,15.10
2019-02-22T11:52:15.132Z,15.00
2019-02-22T11:54:27.950Z,14.80
2019-02-22T11:56:38.347Z,14.70
2019-02-22T11:58:57.434Z,14.60
2019-02-22T12:01:19.702Z,14.70
2019-02-22T12:03:26.332Z,14.90
2019-02-22T12:05:39.117Z,15.00
2019-02-22T12:07:41.583Z,15.10
2019-02-22T12:15:49.410Z,15.10
2019-02-22T12:16:28.602Z,14.80
2019-02-22T12:18:41.758Z,14.60
2019-02-22T12:20:46.066Z,14.70
2019-02-22T12:23:36.299Z,14.80
2019-02-22T12:25:48.142Z,14.70
2019-02-22T12:28:13.145Z,14.70
2019-02-22T12:30:34.838Z,14.80
2019-02-22T12:33:21.778Z,14.80
2019-02-22T12:36:13.469Z,14.90
2019-02-22T12:38:51.430Z,14.90
2019-02-22T12:41:00.046Z,15.10
2019-02-22T12:43:17.563Z,15.00
2019-02-22T12:46:27.056Z,14.80
2019-02-22T12:51:10.078Z,14.90
2019-02-22T12:58:10.750Z,14.50
2019-02-22T13:00:30.004Z,14.40
2019-02-22T13:02:47.551Z,14.50
2019-02-22T13:05:03.792Z,14.40
2019-02-22T13:07:25.729Z,14.30
2019-02-22T13:10:35.779Z,14.20
2019-02-22T13:12:59.388Z,14.20
2019-02-22T13:15:29.456Z,14.10
2019-02-22T13:17:36.245Z,14.20
2019-02-22T13:19:54.287Z,14.20
2019-02-22T13:22:07.502Z,14.10
2019-02-22T13:24:39.802Z,14.10
2019-02-22T13:27:21.740Z,14.20
2019-02-22T13:30:40.544Z,14.30
2019-02-22T13:33:26.145Z,14.40
2019-02-22T13:36:08.769Z,14.40
2019-02-22T13:42:03.923Z,14.30
2019-02-22T13:44:45.910Z,13.90
2019-02-22T13:47:47.271Z,13.60
2019-02-22T13:53:06.145Z,13.70
2019-02-22T13:56:03.439Z,13.80
2019-02-22T14:35:42.335Z,13.70
2019-02-22T15:19:30.925Z,13.20
2019-02-22T15:22:56.987Z,13.20
2019-02-22T15:25:02.174Z,13.30
2019-02-22T15:28:04.979Z,13.30
2019-02-22T15:31:06.957Z,13.20
2019-02-22T15:34:00.263Z,13.20
2019-02-22T15:36:20.789Z,13.10
2019-02-22T15:45:30.399Z,13.00
2019-02-22T15:48:24.625Z,13.00
2019-02-22T15:51:54.214Z,13.00
2019-02-22T21:10:58.782Z,6.70
2019-02-22T21:19:37.386Z,6.60
2019-02-22T21:21:59.779Z,6.50
2019-02-22T21:24:18.578Z,6.50
2019-02-22T21:27:09.978Z,6.40
2019-02-22T21:33:10.862Z,6.30
2019-02-22T21:35:56.549Z,6.20
2019-02-22T21:38:57.261Z,6.10
2019-02-22T21:43:41.371Z,6.10
2019-02-22T21:46:04.403Z,6.00
2019-02-22T21:48:37.062Z,6.00
2019-02-22T21:51:25.066Z,5.90
2019-02-22T21:59:21.401Z,5.80
2019-02-22T22:01:45.454Z,5.80
2019-02-22T22:04:17.184Z,5.70
2019-02-22T22:06:42.788Z,5.70
2019-02-22T22:09:12.080Z,5.60
2019-02-22T22:11:27.134Z,5.60
2019-02-22T22:13:51.947Z,5.60
2019-02-22T22:16:27.640Z,5.60
2019-02-22T22:19:24.276Z,5.50
2019-02-22T22:28:18.733Z,5.40
2019-02-22T22:31:35.137Z,5.40
2019-02-22T22:40:47.231Z,5.30
2019-02-22T22:43:55.089Z,5.20
2019-02-22T22:50:18.094Z,5.10
2019-02-22T22:52:47.815Z,5.10
2019-02-22T23:01:54.896Z,5.00
2019-02-22T23:07:53.676Z,4.90
2019-02-22T23:15:49.158Z,4.80
2019-02-22T23:21:12.849Z,4.80
2019-02-22T23:27:31.781Z,4.70
2019-02-22T23:36:50.242Z,4.70
2019-02-22T23:43:13.604Z,4.60
2019-02-22T23:57:49.835Z,4.40
